Time;durP1;ratioP1;P1;durP2;ratioP2;P2;SDS_P1;SDS_P2;PMS_P1;PMS_P2;Temp;Humidity;BMP_temperature;BMP_pressure;BME280_temperature;BME280_humidity;BME280_pressure;Samples;Min_cycle;Max_cycle;Signal;HPM_P1;HPM_P2
2022/07/02 00:02:08;;;;;;;1.37;1.27;;;;;;;22.76;78.90;98066.78;6091505;23;20156;-92
2022/07/02 00:04:35;;;;;;;1.00;1.00;;;;;;;22.16;78.82;97954.59;6066368;23;20176;-91
2022/07/02 00:07:02;;;;;;;1.10;1.10;;;;;;;22.12;78.88;97942.53;6067216;23;20176;-92
2022/07/02 00:09:30;;;;;;;1.40;1.30;;;;;;;22.95;78.81;98107.56;6090403;23;20200;-93
2022/07/02 00:11:59;;;;;;;1.20;1.10;;;;;;;22.25;79.12;97966.81;6043692;23;20165;-92
2022/07/02 00:14:26;;;;;;;1.23;1.13;;;;;;;22.82;78.95;98081.50;6044075;23;20183;-93
2022/07/02 00:16:55;;;;;;;0.93;0.93;;;;;;;22.45;78.98;98006.78;6090282;23;20576;-93
2022/07/02 00:19:22;;;;;;;1.13;1.13;;;;;;;22.16;78.51;97967.41;6067502;23;20156;-92
2022/07/02 00:21:49;;;;;;;1.10;1.10;;;;;;;22.88;79.05;98087.69;6066775;23;20166;-93
2022/07/02 00:24:15;;;;;;;1.00;1.00;;;;;;;22.68;78.86;98055.41;6066508;23;20159;-93
2022/07/02 00:26:49;;;;;;;1.00;1.00;;;;;;;22.49;78.95;98011.16;6066602;23;20200;-93
2022/07/02 00:29:17;;;;;;;1.20;1.10;;;;;;;23.27;78.67;98154.84;6064307;23;20153;-93
2022/07/02 00:31:44;;;;;;;1.13;1.03;;;;;;;22.79;79.06;98076.28;6090133;23;20176;-93
2022/07/02 00:34:10;;;;;;;1.37;1.27;;;;;;;22.58;78.71;98039.69;6066325;23;20160;-93
2022/07/02 05:52:30;;;;;;;1.10;1.10;;;;;;;21.57;78.29;97923.47;6105874;23;20240;-92
2022/07/02 05:54:57;;;;;;;0.97;0.97;;;;;;;19.23;77.74;97550.38;6075488;23;20155;-91
2022/07/02 05:57:24;;;;;;;1.00;1.00;;;;;;;18.75;77.98;97431.34;6066739;23;20275;-92
2022/07/02 05:59:51;;;;;;;0.87;0.87;;;;;;;21.51;78.41;97915.59;6067415;23;20176;-92
2022/07/02 06:02:18;;;;;;;1.00;1.00;;;;;;;20.79;78.18;97791.13;6069787;23;20178;-92
2022/07/02 06:04:45;;;;;;;1.10;1.10;;;;;;;20.06;78.62;97658.13;6050555;23;20165;-92
2022/07/02 06:09:59;;;;;;;7.47;5.00;;;;;;;20.46;71.30;97796.66;6119604;23;20159;-90
2022/07/02 06:12:26;;;;;;;6.17;5.20;;;;;;;19.43;70.09;97603.03;6124559;23;20203;-94
2022/07/02 06:14:52;;;;;;;5.70;5.10;;;;;;;18.70;68.60;97484.63;6147783;23;20179;-89
2022/07/02 06:23:21;;;;;;;7.27;5.27;;;;;;;20.43;67.59;97805.06;6183826;23;20177;-89
2022/07/02 07:46:48;;;;;;;11.10;10.00;;;;;;;18.97;72.61;97647.81;6160478;23;20206;-91
2022/07/02 07:49:35;;;;;;;10.47;9.57;;;;;;;18.46;73.95;97585.41;6132062;23;20150;-89
2022/07/02 08:16:33;;;;;;;8.60;7.10;;;;;;;18.90;74.92;97635.63;6161765;23;20179;-90
2022/07/02 08:38:40;;;;;;;9.47;5.93;;;;;;;18.66;74.59;97515.84;6124247;23;20178;-90
2022/07/02 08:41:27;;;;;;;6.43;5.73;;;;;;;20.02;75.00;97762.59;6060964;23;20158;-91
2022/07/02 08:44:07;;;;;;;5.73;5.17;;;;;;;19.21;74.03;97593.63;6081364;23;20183;-91
2022/07/02 08:46:39;;;;;;;7.33;5.53;;;;;;;20.75;74.72;97848.00;6099326;23;20207;-91
2022/07/02 08:54:53;;;;;;;6.03;5.37;;;;;;;19.03;73.04;97541.06;6109984;23;20210;-93
2022/07/02 09:38:27;;;;;;;6.90;4.27;;;;;;;23.33;74.48;98202.06;6179429;23;20179;-90
2022/07/02 09:49:07;;;;;;;6.67;4.23;;;;;;;20.41;74.00;97719.03;6148436;23;20193;-92
2022/07/02 09:51:53;;;;;;;5.97;3.80;;;;;;;21.99;74.29;97967.66;6105091;23;20167;-90
2022/07/02 09:54:39;;;;;;;6.30;4.03;;;;;;;17.97;73.91;97279.84;6103842;23;20154;-91
2022/07/02 10:08:08;;;;;;;5.57;3.67;;;;;;;19.81;73.65;97624.03;6181845;23;20190;-90
2022/07/02 10:16:13;;;;;;;6.17;3.97;;;;;;;23.39;74.43;98181.75;6165395;23;20202;-92
2022/07/02 10:18:59;;;;;;;9.13;4.10;;;;;;;21.59;74.31;97901.41;6132686;23;20151;-90
2022/07/02 10:21:26;;;;;;;8.00;4.00;;;;;;;21.09;74.16;97799.03;6102380;23;20155;-93
2022/07/02 10:23:52;;;;;;;10.13;4.00;;;;;;;20.87;74.33;97781.19;6126186;23;20259;-93
2022/07/02 10:26:19;;;;;;;5.70;3.90;;;;;;;21.13;74.05;97775.31;6125758;23;20191;-92
2022/07/02 10:28:46;;;;;;;8.10;3.60;;;;;;;20.33;74.11;97654.06;6104792;23;20166;-91
2022/07/02 10:31:19;;;;;;;6.97;4.00;;;;;;;20.49;74.24;97657.19;6081304;23;20155;-92
2022/07/02 10:34:17;;;;;;;7.90;3.87;;;;;;;23.40;74.28;98162.09;6104752;23;20158;-91
2022/07/02 10:36:44;;;;;;;5.07;3.50;;;;;;;21.06;73.64;97761.47;6131365;23;20191;-91
2022/07/02 12:59:27;;;;;;;4.60;2.83;;;;;;;20.52;75.03;97549.25;6114315;23;20163;-93
2022/07/02 13:18:13;;;;;;;2.63;2.43;;;;;;;19.20;75.06;97281.09;6121810;23;20230;-92
2022/07/02 13:20:40;;;;;;;2.93;2.63;;;;;;;20.60;74.94;97529.94;6073807;23;20196;-94
2022/07/02 14:49:24;;;;;;;4.70;2.60;;;;;;;20.02;74.68;97291.50;6121572;23;20203;-91
2022/07/02 14:51:51;;;;;;;4.33;2.40;;;;;;;20.56;75.11;97386.00;6100365;23;20164;-92
2022/07/02 14:54:36;;;;;;;3.43;2.47;;;;;;;23.51;75.24;97900.75;6123942;23;20167;-93
2022/07/02 14:57:03;;;;;;;2.77;2.40;;;;;;;19.60;74.70;97222.16;6099007;23;20192;-91
2022/07/02 15:07:36;;;;;;;4.83;2.30;;;;;;;22.28;75.59;97670.78;6113450;23;20211;-91
2022/07/02 15:10:04;;;;;;;3.47;2.37;;;;;;;20.89;75.30;97429.56;6068836;23;20493;-93
2022/07/02 15:12:31;;;;;;;4.67;2.30;;;;;;;22.37;75.29;97678.72;6074235;23;20155;-92
2022/07/02 15:17:53;;;;;;;4.27;2.43;;;;;;;19.49;75.33;97215.84;6125386;23;20247;-92
2022/07/02 15:20:24;;;;;;;5.13;2.30;;;;;;;19.52;75.15;97198.09;6078505;23;20148;-90
2022/07/02 15:23:45;;;;;;;6.00;2.30;;;;;;;23.50;74.93;97856.25;6077689;23;20172;-92
2022/07/02 15:26:32;;;;;;;5.00;2.33;;;;;;;22.48;74.41;97722.56;6111840;23;20191;-92
2022/07/02 15:28:59;;;;;;;3.93;2.07;;;;;;;22.15;74.82;97657.59;6073795;23;20159;-93
2022/07/02 15:31:25;;;;;;;3.73;2.20;;;;;;;18.40;74.52;96978.78;6075906;23;20152;-91
2022/07/02 15:33:52;;;;;;;3.57;1.97;;;;;;;19.60;74.55;97200.06;6076213;23;20170;-91
2022/07/02 15:36:20;;;;;;;3.67;2.13;;;;;;;20.48;74.34;97384.88;6046815;23;20196;-90
2022/07/02 15:38:50;;;;;;;8.93;2.23;;;;;;;23.50;74.67;97846.00;6045243;23;20172;-90
2022/07/02 15:41:24;;;;;;;3.47;2.23;;;;;;;20.23;73.91;97282.88;6023305;23;20185;-90
2022/07/02 15:43:52;;;;;;;4.80;2.63;;;;;;;20.56;72.69;97363.00;6037754;23;20169;-91
2022/07/02 15:46:22;;;;;;;4.13;2.10;;;;;;;18.51;74.05;97023.25;6061153;23;20235;-91
2022/07/02 15:48:50;;;;;;;4.67;2.00;;;;;;;18.69;73.88;97019.63;6040297;23;20163;-89
2022/07/02 15:51:22;;;;;;;5.20;2.00;;;;;;;20.51;74.07;97363.66;6041058;23;20236;-90
2022/07/02 15:53:49;;;;;;;3.57;2.00;;;;;;;21.36;74.47;97521.31;6039262;23;20549;-89
2022/07/02 15:56:18;;;;;;;4.43;2.37;;;;;;;23.51;74.34;97827.22;6040591;23;20228;-92
2022/07/02 15:58:51;;;;;;;2.90;1.90;;;;;;;23.51;74.41;97827.22;6045654;23;20170;-93
2022/07/02 16:01:18;;;;;;;2.43;1.87;;;;;;;23.51;73.94;97828.91;6070130;23;20169;-93
2022/07/02 16:03:56;;;;;;;2.13;1.70;;;;;;;21.63;73.92;97500.00;6041696;23;20178;-91
2022/07/02 16:06:22;;;;;;;4.63;2.10;;;;;;;21.85;74.03;97536.44;6039061;23;20212;-93
2022/07/02 16:08:50;;;;;;;2.20;1.90;;;;;;;22.88;74.18;97721.19;6088028;23;20160;-92
2022/07/02 16:11:17;;;;;;;3.10;2.13;;;;;;;22.49;73.92;97662.84;6034227;23;20191;-93
2022/07/02 16:13:44;;;;;;;3.93;2.27;;;;;;;19.80;74.75;97200.69;6042500;23;20180;-89
2022/07/02 16:16:12;;;;;;;3.03;2.00;;;;;;;19.09;73.74;97075.22;6024156;23;20199;-90
2022/07/02 16:18:39;;;;;;;1.93;1.70;;;;;;;21.44;73.81;97481.53;6047057;23;20208;-94
2022/07/02 16:21:06;;;;;;;2.57;1.90;;;;;;;20.15;73.71;97230.72;6045991;23;20173;-94
2022/07/02 16:23:33;;;;;;;2.00;1.80;;;;;;;20.47;73.61;97291.25;6046601;23;20185;-92
2022/07/02 16:25:59;;;;;;;3.90;1.60;;;;;;;19.46;73.35;97106.16;6066507;23;20195;-89
2022/07/02 16:28:26;;;;;;;2.33;1.70;;;;;;;21.57;72.95;97476.81;6064461;23;20205;-93
2022/07/02 16:30:56;;;;;;;3.67;2.10;;;;;;;21.90;73.41;97527.22;6086585;23;20159;-93
2022/07/02 16:33:53;;;;;;;3.60;2.00;;;;;;;23.50;73.33;97806.66;6063322;23;20422;-94
2022/07/02 16:36:22;;;;;;;2.10;1.77;;;;;;;19.41;72.63;97115.34;6091297;23;20211;-95
2022/07/02 16:38:50;;;;;;;3.00;1.90;;;;;;;21.63;72.51;97502.56;6067145;23;20187;-93
2022/07/02 16:41:17;;;;;;;3.97;1.77;;;;;;;21.87;72.67;97525.41;6066878;23;20248;-93
2022/07/02 16:43:45;;;;;;;3.43;1.97;;;;;;;19.41;72.65;97100.06;6066732;23;20205;-93
2022/07/02 16:46:11;;;;;;;3.80;2.00;;;;;;;19.53;72.76;97124.25;6065475;23;20208;-92
2022/07/02 16:48:43;;;;;;;4.50;2.10;;;;;;;20.50;72.23;97296.44;6064577;23;20156;-89
2022/07/02 16:51:11;;;;;;;4.20;1.93;;;;;;;21.47;73.07;97438.16;6065514;23;20161;-93
2022/07/02 16:53:39;;;;;;;2.60;2.10;;;;;;;20.45;73.07;97302.22;6066534;23;20164;-93
2022/07/02 16:56:07;;;;;;;3.97;1.93;;;;;;;23.34;74.04;97795.13;6065230;23;20180;-94
2022/07/02 16:58:42;;;;;;;3.13;2.00;;;;;;;21.68;73.01;97461.75;6068250;23;20156;-93
2022/07/02 17:01:08;;;;;;;4.03;1.97;;;;;;;20.24;72.74;97215.69;6043437;23;20193;-94
2022/07/02 17:03:35;;;;;;;2.27;1.90;;;;;;;20.99;72.80;97355.81;6091041;23;20157;-93
2022/07/02 17:06:02;;;;;;;2.00;1.53;;;;;;;21.71;72.74;97474.63;6065940;23;20195;-92
2022/07/02 17:08:29;;;;;;;2.73;1.90;;;;;;;20.46;72.85;97251.22;6043064;23;20145;-93
2022/07/02 17:13:40;;;;;;;3.63;1.80;;;;;;;20.79;73.11;97320.28;6089949;23;20175;-90
2022/07/02 17:16:07;;;;;;;2.37;1.80;;;;;;;20.46;72.75;97246.09;6064840;23;20200;-91
2022/07/02 17:18:34;;;;;;;3.47;1.93;;;;;;;22.40;73.06;97603.69;6087806;23;20200;-93
2022/07/02 17:21:00;;;;;;;2.93;2.07;;;;;;;20.15;nan;97214.53;6064781;23;20212;-90
2022/07/02 17:23:28;;;;;;;2.63;1.70;;;;;;;19.75;72.89;97116.41;6087721;23;20190;-94
2022/07/02 17:25:56;;;;;;;2.97;2.10;;;;;;;19.89;72.72;97183.13;6068042;23;20232;-90
2022/07/02 17:28:24;;;;;;;5.20;2.00;;;;;;;20.45;73.00;97281.78;6092278;23;20203;-92
2022/07/02 17:30:51;;;;;;;2.50;2.00;;;;;;;20.44;72.83;97288.63;6045882;23;20171;-93
2022/07/02 17:33:33;;;;;;;3.37;2.00;;;;;;;18.09;72.27;96858.22;6065424;23;20229;-93
2022/07/02 17:43:59;;;;;;;2.13;1.83;;;;;;;23.50;73.71;97763.03;6110195;23;20187;-92
2022/07/02 17:52:04;;;;;;;5.80;2.07;;;;;;;20.63;73.51;97287.47;6110159;23;20313;-94
2022/07/02 17:54:45;;;;;;;3.87;1.80;;;;;;;20.47;73.87;97240.19;6100785;23;20152;-95
2022/07/02 17:57:24;;;;;;;2.90;1.97;;;;;;;18.73;73.73;96923.88;6052960;23;20152;-94
2022/07/02 17:59:53;;;;;;;3.37;2.00;;;;;;;19.41;73.80;97060.16;6095166;23;20156;-94
2022/07/02 18:02:35;;;;;;;4.67;1.90;;;;;;;23.54;74.15;97752.91;6073954;23;20176;-94
2022/07/02 18:05:15;;;;;;;3.67;2.13;;;;;;;20.00;74.45;97151.16;6053750;23;20219;-94
2022/07/02 18:07:45;;;;;;;6.23;2.10;;;;;;;18.01;73.07;96833.38;6048900;23;20203;-93
2022/07/02 18:10:25;;;;;;;3.57;2.03;;;;;;;20.70;74.88;97287.69;6053145;23;20152;-92
2022/07/02 18:12:52;;;;;;;4.90;2.20;;;;;;;18.95;74.55;96961.91;6070805;23;20204;-93
2022/07/02 18:15:20;;;;;;;4.27;2.50;;;;;;;20.51;74.15;97280.31;6070532;23;20178;-93
2022/07/02 18:17:47;;;;;;;3.57;1.70;;;;;;;20.65;74.26;97250.94;6046755;23;20199;-92
2022/07/02 18:20:14;;;;;;;2.67;2.20;;;;;;;20.88;74.72;97303.53;6047392;23;20171;-93
2022/07/02 18:25:28;;;;;;;4.70;1.83;;;;;;;23.61;72.85;97772.75;6123746;23;20156;-92
2022/07/02 18:28:00;;;;;;;4.70;2.40;;;;;;;20.72;73.86;97245.16;6055150;23;20156;-93
2022/07/02 18:30:42;;;;;;;4.17;1.80;;;;;;;18.36;74.51;96877.72;6052522;23;20151;-94
2022/07/02 18:33:25;;;;;;;2.93;1.70;;;;;;;20.69;73.99;97254.47;6083395;23;20179;-93
